createdAt,value
2018-07-02T00:02:21.602Z,101670.70
2018-07-02T00:04:54.343Z,101671.38
2018-07-02T00:07:27.361Z,101669.75
2018-07-02T00:10:00.303Z,101670.28
2018-07-02T00:12:32.232Z,101672.02
2018-07-02T00:15:03.700Z,101669.20
2018-07-02T00:17:36.681Z,101670.69
2018-07-02T00:20:10.875Z,101670.63
2018-07-02T00:22:42.836Z,101671.61
2018-07-02T00:25:15.851Z,101671.63
2018-07-02T00:27:45.952Z,101675.19
2018-07-02T00:30:20.509Z,101668.02
2018-07-02T00:32:52.203Z,101659.84
2018-07-02T00:35:25.106Z,101665.27
2018-07-02T00:37:58.212Z,101661.76
2018-07-02T00:40:31.321Z,101654.27
2018-07-02T00:43:04.403Z,101659.76
2018-07-02T00:45:36.464Z,101655.58
2018-07-02T00:48:07.928Z,101657.27
2018-07-02T00:50:40.926Z,101658.55
2018-07-02T00:53:14.668Z,101660.55
2018-07-02T00:55:46.640Z,101651.18
2018-07-02T00:58:18.000Z,101649.63
2018-07-02T01:00:51.827Z,101650.37
2018-07-02T01:03:24.450Z,101647.05
2018-07-02T01:05:59.411Z,101645.17
2018-07-02T01:08:31.062Z,101652.25
2018-07-02T01:11:04.220Z,101654.83
2018-07-02T01:13:35.820Z,101655.77
2018-07-02T01:16:07.908Z,101647.95
2018-07-02T01:18:41.035Z,101654.48
2018-07-02T01:21:14.352Z,101658.95
2018-07-02T01:23:47.453Z,101660.23
2018-07-02T01:26:21.354Z,101661.22
2018-07-02T01:28:52.977Z,101667.44
2018-07-02T01:31:27.020Z,101664.56
2018-07-02T01:34:00.539Z,101662.62
2018-07-02T01:36:32.544Z,101656.41
2018-07-02T01:39:02.199Z,101661.83
2018-07-02T01:41:35.260Z,101670.97
2018-07-02T01:44:05.944Z,101671.37
2018-07-02T01:46:39.011Z,101668.17
2018-07-02T01:49:12.590Z,101662.64
2018-07-02T01:51:44.258Z,101671.38
2018-07-02T01:54:17.108Z,101677.28
2018-07-02T01:56:51.665Z,101675.39
2018-07-02T01:59:24.607Z,101674.70
2018-07-02T02:01:59.076Z,101674.38
2018-07-02T02:04:31.132Z,101673.90
2018-07-02T02:07:04.147Z,101679.05
2018-07-02T02:09:38.254Z,101683.23
2018-07-02T02:12:12.858Z,101682.94
2018-07-02T02:14:47.426Z,101682.75
2018-07-02T02:17:19.376Z,101684.37
2018-07-02T02:19:52.420Z,101687.34
2018-07-02T02:22:24.971Z,101675.19
2018-07-02T02:24:56.217Z,101677.36
2018-07-02T02:27:27.848Z,101670.72
2018-07-02T02:30:00.875Z,101678.27
2018-07-02T02:32:32.373Z,101683.41
2018-07-02T02:35:04.005Z,101680.41
2018-07-02T02:37:35.081Z,101682.72
2018-07-02T02:40:08.084Z,101686.83
2018-07-02T02:42:41.057Z,101680.95
2018-07-02T02:45:11.157Z,101677.17
2018-07-02T02:47:43.060Z,101680.17
2018-07-02T02:50:15.977Z,101677.83
2018-07-02T02:52:48.047Z,101672.88
2018-07-02T02:55:22.784Z,101672.27
2018-07-02T02:57:52.744Z,101669.26
2018-07-02T03:00:24.312Z,101671.40
2018-07-02T03:02:54.946Z,101677.25
2018-07-02T03:05:26.264Z,101673.53
2018-07-02T03:07:59.401Z,101680.69
2018-07-02T03:10:30.971Z,101687.14
2018-07-02T03:13:03.918Z,101689.38
2018-07-02T03:15:35.444Z,101687.55
2018-07-02T03:18:05.627Z,101683.83
2018-07-02T03:20:37.304Z,101685.66
2018-07-02T03:23:11.158Z,101686.87
2018-07-02T03:25:41.266Z,101692.27
2018-07-02T03:28:12.919Z,101695.84
2018-07-02T03:30:46.077Z,101700.11
2018-07-02T03:33:19.350Z,101697.25
2018-07-02T03:35:52.745Z,101708.45
2018-07-02T03:38:22.717Z,101704.33
2018-07-02T03:40:56.269Z,101708.30
2018-07-02T03:43:26.282Z,101717.52
2018-07-02T03:46:00.890Z,101714.88
2018-07-02T03:48:33.172Z,101716.18
2018-07-02T03:51:06.377Z,101720.52
2018-07-02T03:53:40.254Z,101723.23
2018-07-02T03:56:11.896Z,101716.86
2018-07-02T03:58:43.356Z,101712.91
2018-07-02T04:01:13.402Z,101715.62
2018-07-02T04:03:46.276Z,101713.06
2018-07-02T04:06:17.834Z,101716.98
2018-07-02T04:08:50.675Z,101720.22
2018-07-02T04:11:22.193Z,101717.14
2018-07-02T04:13:53.975Z,101722.36
2018-07-02T04:16:26.954Z,101725.61
2018-07-02T04:19:07.136Z,101727.00
2018-07-02T04:21:40.351Z,101729.51
2018-07-02T04:24:13.376Z,101726.91
2018-07-02T04:26:46.345Z,101729.28
2018-07-02T04:29:20.675Z,101725.66
2018-07-02T04:31:53.917Z,101727.06
2018-07-02T04:34:25.533Z,101728.03
2018-07-02T04:36:56.981Z,101729.68
2018-07-02T04:39:27.516Z,101731.16
2018-07-02T04:42:00.909Z,101746.29
2018-07-02T04:44:31.107Z,101742.40
2018-07-02T04:47:04.000Z,101736.87
2018-07-02T04:49:35.857Z,101729.75
2018-07-02T04:52:08.835Z,101729.36
2018-07-02T04:54:38.875Z,101728.94
2018-07-02T04:57:08.919Z,101728.18
2018-07-02T04:59:41.859Z,101713.20
2018-07-02T05:02:13.799Z,101728.87
2018-07-02T05:04:45.542Z,101717.19
2018-07-02T05:07:16.894Z,101727.12
2018-07-02T05:09:48.412Z,101720.40
2018-07-02T05:12:19.891Z,101716.14
2018-07-02T05:14:52.947Z,101711.02
2018-07-02T05:17:26.009Z,101717.47
2018-07-02T05:20:00.359Z,101715.53
2018-07-02T05:22:32.081Z,101701.25
2018-07-02T05:25:02.616Z,101702.18
2018-07-02T05:27:35.532Z,101699.82
2018-07-02T05:30:07.279Z,101707.62
2018-07-02T05:32:38.803Z,101707.61
2018-07-02T05:35:10.421Z,101714.61
2018-07-02T05:37:42.172Z,101720.76
2018-07-02T05:40:13.602Z,101721.71
2018-07-02T05:42:48.384Z,101718.23
2018-07-02T05:45:21.443Z,101712.69
2018-07-02T05:47:54.350Z,101725.22
2018-07-02T05:50:27.261Z,101713.52
2018-07-02T05:53:00.706Z,101704.94
2018-07-02T05:55:30.742Z,101700.91
2018-07-02T05:58:02.287Z,101718.64
2018-07-02T06:00:34.027Z,101713.46
2018-07-02T06:03:06.806Z,101725.66
2018-07-02T06:05:36.080Z,101723.33
2018-07-02T06:08:09.155Z,101715.27
2018-07-02T06:10:40.675Z,101723.30
2018-07-02T06:13:15.139Z,101729.59
2018-07-02T06:15:48.119Z,101741.73
2018-07-02T06:18:19.612Z,101733.20
2018-07-02T06:20:50.972Z,101733.80
2018-07-02T06:23:22.398Z,101731.66
2018-07-02T06:25:53.795Z,101749.25
2018-07-02T06:28:27.144Z,101747.48
2018-07-02T06:30:58.600Z,101746.73
2018-07-02T06:33:29.954Z,101748.83
2018-07-02T06:36:00.045Z,101750.39
2018-07-02T06:38:31.932Z,101752.23
2018-07-02T06:41:03.430Z,101752.59
2018-07-02T06:43:34.807Z,101751.13
2018-07-02T06:46:09.495Z,101749.11
2018-07-02T06:48:42.295Z,101755.60
2018-07-02T06:51:15.516Z,101742.77
2018-07-02T06:53:46.916Z,101756.39
2018-07-02T06:56:19.778Z,101775.45
2018-07-02T06:58:52.779Z,101764.80
2018-07-02T07:01:22.685Z,101768.05
2018-07-02T07:03:55.725Z,101758.34
2018-07-02T07:06:28.895Z,101760.93
2018-07-02T07:09:00.363Z,101764.12
2018-07-02T07:11:32.585Z,101769.03
2018-07-02T07:14:05.452Z,101775.66
2018-07-02T07:16:38.542Z,101769.20
2018-07-02T07:19:09.892Z,101779.01
2018-07-02T07:21:39.786Z,101777.95
2018-07-02T07:24:13.144Z,101791.84
2018-07-02T07:26:44.560Z,101787.45
2018-07-02T07:29:17.509Z,101781.60
2018-07-02T07:31:50.559Z,101786.72
2018-07-02T07:34:23.470Z,101772.70
2018-07-02T07:36:57.861Z,101773.77
2018-07-02T07:39:29.096Z,101763.67
2018-07-02T07:42:01.268Z,101761.14
2018-07-02T07:44:35.879Z,101758.38
2018-07-02T07:47:08.376Z,101767.78
2018-07-02T07:49:41.299Z,101767.55
2018-07-02T07:52:15.907Z,101769.36
2018-07-02T07:54:46.625Z,101766.94
2018-07-02T07:57:21.291Z,101754.89
2018-07-02T07:59:53.105Z,101754.60
2018-07-02T08:02:22.741Z,101768.78
2018-07-02T08:04:54.215Z,101760.45
2018-07-02T08:07:24.692Z,101759.10
2018-07-02T08:09:56.151Z,101767.62
2018-07-02T08:12:29.144Z,101773.85
2018-07-02T08:14:59.920Z,101767.63
2018-07-02T08:17:30.525Z,101759.52
2018-07-02T08:20:00.995Z,101782.42
2018-07-02T08:22:33.858Z,101759.25
2018-07-02T08:25:06.920Z,101744.57
2018-07-02T08:27:36.873Z,101761.29
2018-07-02T08:30:10.713Z,101753.14
2018-07-02T08:32:42.707Z,101754.52
2018-07-02T08:35:14.969Z,101763.35
2018-07-02T08:37:49.382Z,101783.61
2018-07-02T08:40:22.374Z,101766.53
2018-07-02T08:42:52.998Z,101766.96
2018-07-02T08:45:26.331Z,101754.61
2018-07-02T08:47:58.018Z,101771.91
2018-07-02T08:50:28.954Z,101772.89
2018-07-02T08:53:00.587Z,101770.67
2018-07-02T08:55:31.826Z,101778.02
2018-07-02T08:58:03.558Z,101781.47
2018-07-02T09:00:36.690Z,101777.30
2018-07-02T09:03:08.694Z,101764.53
2018-07-02T09:05:40.036Z,101773.39
2018-07-02T09:08:12.846Z,101772.39
2018-07-02T09:10:45.758Z,101769.82
2018-07-02T09:13:18.688Z,101763.54
2018-07-02T09:15:50.071Z,101782.75
2018-07-02T09:18:21.671Z,101769.28
2018-07-02T09:20:54.568Z,101779.09
2018-07-02T09:23:27.549Z,101767.66
2018-07-02T09:25:59.627Z,101771.59
2018-07-02T09:28:29.753Z,101783.33
2018-07-02T09:31:02.602Z,101776.17
2018-07-02T09:33:32.624Z,101787.19
2018-07-02T09:36:05.569Z,101775.63
2018-07-02T09:38:38.517Z,101782.91
2018-07-02T09:41:10.639Z,101774.41
2018-07-02T09:43:42.136Z,101772.39
2018-07-02T09:46:16.497Z,101773.91
2018-07-02T09:48:50.834Z,101769.77
2018-07-02T09:51:25.204Z,101787.48
2018-07-02T09:53:59.991Z,101792.48
2018-07-02T09:56:33.169Z,101764.22
2018-07-02T09:59:04.622Z,101763.50
2018-07-02T10:01:36.054Z,101765.34
2018-07-02T10:04:08.914Z,101783.83
2018-07-02T10:06:41.007Z,101775.16
2018-07-02T10:09:14.769Z,101767.28
2018-07-02T10:11:46.071Z,101781.70
2018-07-02T10:14:16.065Z,101757.78
2018-07-02T10:16:47.582Z,101766.38
2018-07-02T10:19:20.826Z,101780.77
2018-07-02T10:21:54.325Z,101768.87
2018-07-02T10:24:27.522Z,101761.67
2018-07-02T10:27:00.555Z,101765.84
2018-07-02T10:29:33.682Z,101762.51
2018-07-02T10:32:06.588Z,101758.53
2018-07-02T10:34:40.196Z,101764.80
2018-07-02T10:37:11.762Z,101760.41
2018-07-02T10:39:43.944Z,101758.42
2018-07-02T10:42:15.398Z,101758.91
2018-07-02T10:44:48.702Z,101751.42
2018-07-02T10:47:22.987Z,101752.09
2018-07-02T10:49:55.784Z,101749.25
2018-07-02T10:52:27.106Z,101757.44
2018-07-02T10:54:59.977Z,101750.95
2018-07-02T10:57:34.393Z,101764.12
2018-07-02T11:00:05.763Z,101751.02
2018-07-02T11:02:38.682Z,101740.77
2018-07-02T11:05:13.424Z,101760.68
2018-07-02T11:07:46.258Z,101743.84
2018-07-02T11:10:19.119Z,101748.12
2018-07-02T11:12:52.014Z,101737.23
2018-07-02T11:15:22.041Z,101736.04
2018-07-02T11:17:55.021Z,101732.02
2018-07-02T11:20:25.054Z,101745.78
2018-07-02T11:22:57.902Z,101751.52
2018-07-02T11:25:32.611Z,101730.00
2018-07-02T11:28:05.458Z,101733.06
2018-07-02T11:30:38.754Z,101746.76
2018-07-02T11:33:11.712Z,101755.63
2018-07-02T11:35:44.547Z,101736.36
2018-07-02T11:38:16.527Z,101733.01
2018-07-02T11:40:46.475Z,101735.20
2018-07-02T11:43:19.340Z,101734.16
2018-07-02T11:45:52.233Z,101732.86
2018-07-02T11:48:26.813Z,101729.64
2018-07-02T11:50:59.706Z,101726.28
2018-07-02T11:53:29.676Z,101729.86
2018-07-02T11:56:02.605Z,101744.43
2018-07-02T11:58:34.046Z,101735.17
2018-07-02T12:01:06.963Z,101724.42
2018-07-02T12:03:40.164Z,101723.23
2018-07-02T12:06:11.559Z,101737.37
2018-07-02T12:08:43.712Z,101741.56
2018-07-02T12:11:14.915Z,101736.70
2018-07-02T12:13:46.221Z,101732.53
2018-07-02T12:16:18.346Z,101734.13
2018-07-02T12:18:50.540Z,101738.18
2018-07-02T12:21:21.954Z,101739.19
2018-07-02T12:23:53.545Z,101746.35
2018-07-02T12:26:25.516Z,101737.09
2018-07-02T12:28:58.649Z,101736.05
2018-07-02T12:31:33.511Z,101733.05
2018-07-02T12:34:06.832Z,101724.41
2018-07-02T12:36:38.552Z,101726.81
2018-07-02T12:39:15.492Z,101725.09
2018-07-02T12:41:46.924Z,101728.83
2018-07-02T12:44:18.374Z,101719.80
2018-07-02T12:46:52.905Z,101723.70
2018-07-02T12:49:24.356Z,101726.57
2018-07-02T12:51:57.247Z,101713.16
2018-07-02T12:54:36.676Z,101706.32
2018-07-02T12:57:09.906Z,101705.92
2018-07-02T12:59:44.386Z,101714.42
2018-07-02T13:02:17.298Z,101713.16
2018-07-02T13:04:51.607Z,101716.20
2018-07-02T13:07:23.056Z,101713.38
2018-07-02T13:09:53.065Z,101698.79
2018-07-02T13:12:24.346Z,101711.08
2018-07-02T13:14:57.260Z,101711.44
2018-07-02T13:17:28.833Z,101711.53
2018-07-02T13:20:00.270Z,101715.53
2018-07-02T13:22:30.576Z,101712.12
2018-07-02T13:25:04.921Z,101703.25
2018-07-02T13:27:38.253Z,101697.24
2018-07-02T13:30:12.647Z,101701.14
2018-07-02T13:32:46.900Z,101700.41
2018-07-02T13:35:18.798Z,101708.05
2018-07-02T13:37:51.668Z,101700.25
2018-07-02T13:40:25.256Z,101689.03
2018-07-02T13:42:55.315Z,101687.94
2018-07-02T13:45:29.971Z,101704.58
2018-07-02T13:48:01.454Z,101687.34
2018-07-02T13:50:34.379Z,101688.20
2018-07-02T13:53:07.512Z,101678.54
2018-07-02T13:55:40.279Z,101679.34
2018-07-02T13:58:10.141Z,101680.98
2018-07-02T14:00:43.259Z,101673.61
2018-07-02T14:03:14.703Z,101674.89
2018-07-02T14:05:48.956Z,101677.98
2018-07-02T14:08:21.961Z,101676.59
2018-07-02T14:10:54.708Z,101706.93
2018-07-02T14:13:27.592Z,101676.25
2018-07-02T14:16:01.780Z,101683.42
2018-07-02T14:18:34.661Z,101678.66
2018-07-02T14:21:04.552Z,101665.52
2018-07-02T14:23:39.320Z,101669.38
2018-07-02T14:26:11.144Z,101672.52
2018-07-02T14:28:44.470Z,101671.24
2018-07-02T14:31:17.397Z,101667.73
2018-07-02T14:33:48.056Z,101668.66
2018-07-02T14:36:21.293Z,101660.73
2018-07-02T14:38:54.304Z,101678.34
2018-07-02T14:41:29.214Z,101652.55
2018-07-02T14:43:59.226Z,101653.47
2018-07-02T14:46:33.616Z,101665.17
2018-07-02T14:49:06.818Z,101664.97
2018-07-02T14:51:39.719Z,101649.11
2018-07-02T14:54:11.124Z,101663.22
2018-07-02T14:56:42.547Z,101651.27
2018-07-02T14:59:16.933Z,101656.00
2018-07-02T15:01:49.798Z,101651.37
2018-07-02T15:04:22.839Z,101647.65
2018-07-02T15:06:57.145Z,101644.16
2018-07-02T15:09:27.570Z,101642.12
2018-07-02T15:11:59.705Z,101642.60
2018-07-02T15:14:30.511Z,101641.88
2018-07-02T15:17:03.297Z,101638.32
2018-07-02T15:19:36.487Z,101638.66
2018-07-02T15:22:06.387Z,101635.03
2018-07-02T15:24:39.363Z,101641.18
2018-07-02T15:27:12.486Z,101637.61
2018-07-02T15:29:45.394Z,101630.30
2018-07-02T15:32:18.222Z,101633.07
2018-07-02T15:34:48.189Z,101645.97
2018-07-02T15:37:21.887Z,101655.83
2018-07-02T15:39:54.760Z,101633.37
2018-07-02T15:42:27.579Z,101630.42
2018-07-02T15:44:58.592Z,101632.50
2018-07-02T15:47:30.377Z,101642.26
2018-07-02T15:50:03.225Z,101639.05
2018-07-02T15:52:37.470Z,101634.45
2018-07-02T15:55:08.886Z,101624.70
2018-07-02T15:57:43.323Z,101638.36
2018-07-02T16:00:13.193Z,101627.95
2018-07-02T16:02:43.895Z,101631.20
2018-07-02T16:05:18.381Z,101627.93
2018-07-02T16:07:55.344Z,101640.54
2018-07-02T16:10:26.851Z,101636.89
2018-07-02T16:12:58.752Z,101623.37
2018-07-02T16:15:33.387Z,101637.81
2018-07-02T16:18:04.729Z,101631.47
2018-07-02T16:20:37.354Z,101635.95
2018-07-02T16:23:09.141Z,101632.81
2018-07-02T16:25:39.052Z,101643.42
2018-07-02T16:28:10.915Z,101629.97
2018-07-02T16:30:45.277Z,101639.35
2018-07-02T16:33:18.218Z,101641.92
2018-07-02T16:35:51.199Z,101641.06
2018-07-02T16:38:22.780Z,101627.98
2018-07-02T16:40:53.373Z,101627.23
2018-07-02T16:43:26.381Z,101641.39
2018-07-02T16:45:59.252Z,101636.58
2018-07-02T16:48:32.601Z,101641.45
2018-07-02T16:51:04.978Z,101618.31
2018-07-02T16:53:37.342Z,101621.29
2018-07-02T16:56:10.253Z,101617.86
2018-07-02T16:58:43.229Z,101633.59
2018-07-02T17:01:16.168Z,101628.24
2018-07-02T17:03:47.651Z,101627.34
2018-07-02T17:06:21.285Z,101625.31
2018-07-02T17:08:53.149Z,101637.14
2018-07-02T17:11:24.484Z,101634.88
2018-07-02T17:13:58.213Z,101631.14
2018-07-02T17:16:28.110Z,101642.73
2018-07-02T17:19:01.014Z,101633.99
2018-07-02T17:21:32.437Z,101632.89
2018-07-02T17:24:03.838Z,101648.75
2018-07-02T17:26:35.287Z,101636.57
2018-07-02T17:29:06.046Z,101643.87
2018-07-02T17:31:37.531Z,101650.50
2018-07-02T17:34:10.702Z,101648.16
2018-07-02T17:36:43.462Z,101636.28
2018-07-02T17:39:15.362Z,101645.11
2018-07-02T17:41:49.755Z,101647.98
2018-07-02T17:44:21.130Z,101644.64
2018-07-02T17:46:52.533Z,101650.27
2018-07-02T17:49:25.379Z,101644.91
2018-07-02T17:51:56.831Z,101651.15
2018-07-02T17:54:28.217Z,101657.98
2018-07-02T17:57:02.807Z,101668.91
2018-07-02T17:59:34.280Z,101659.44
2018-07-02T18:02:05.706Z,101656.45
2018-07-02T18:04:36.037Z,101661.35
2018-07-02T18:07:08.836Z,101657.91
2018-07-02T18:09:42.096Z,101667.71
2018-07-02T18:12:13.421Z,101666.50
2018-07-02T18:14:46.253Z,101660.80
2018-07-02T18:17:17.872Z,101658.66
2018-07-02T18:19:47.737Z,101655.14
2018-07-02T18:22:22.027Z,101662.41
2018-07-02T18:24:55.210Z,101660.33
2018-07-02T18:27:26.716Z,101668.19
2018-07-02T18:29:58.083Z,101662.06
2018-07-02T18:32:29.471Z,101657.78
2018-07-02T18:35:04.036Z,101655.95
2018-07-02T18:37:35.455Z,101662.41
2018-07-02T18:40:08.337Z,101660.48
2018-07-02T18:42:41.299Z,101663.09
2018-07-02T18:45:14.248Z,101669.15
2018-07-02T18:47:45.734Z,101669.98
2018-07-02T18:50:18.534Z,101676.45
2018-07-02T18:52:49.363Z,101669.91
2018-07-02T18:55:19.430Z,101675.38
2018-07-02T18:57:49.998Z,101676.05
2018-07-02T19:00:22.941Z,101671.59
2018-07-02T19:02:53.548Z,101676.94
2018-07-02T19:05:26.451Z,101675.14
2018-07-02T19:08:00.771Z,101678.81
2018-07-02T19:10:33.763Z,101675.69
2018-07-02T19:13:05.142Z,101680.52
2018-07-02T19:15:35.475Z,101680.97
2018-07-02T19:18:07.723Z,101689.83
2018-07-02T19:20:40.974Z,101693.67
2018-07-02T19:23:12.488Z,101690.13
2018-07-02T19:25:42.463Z,101690.53
2018-07-02T19:28:15.727Z,101700.96
2018-07-02T19:30:47.243Z,101708.20
2018-07-02T19:33:20.123Z,101710.40
2018-07-02T19:35:53.609Z,101713.19
2018-07-02T19:38:25.149Z,101713.33
2018-07-02T19:40:58.529Z,101714.75
2018-07-02T19:43:31.508Z,101717.72
2018-07-02T19:46:06.881Z,101723.22
2018-07-02T19:48:36.905Z,101716.67
2018-07-02T19:51:09.792Z,101719.20
2018-07-02T19:53:40.289Z,101727.48
2018-07-02T19:56:14.727Z,101737.14
2018-07-02T19:58:49.054Z,101734.55
2018-07-02T20:01:23.362Z,101733.64
2018-07-02T20:03:54.988Z,101735.32
2018-07-02T20:06:28.446Z,101742.66
2018-07-02T20:08:58.762Z,101743.88
2018-07-02T20:11:31.597Z,101745.48
2018-07-02T20:14:05.003Z,101748.98
2018-07-02T20:16:35.472Z,101743.20
2018-07-02T20:19:08.420Z,101748.87
2018-07-02T20:21:39.924Z,101746.36
2018-07-02T20:24:11.344Z,101749.25
2018-07-02T20:26:42.758Z,101750.45
2018-07-02T20:29:15.972Z,101758.07
2018-07-02T20:31:46.050Z,101758.69
2018-07-02T20:34:18.917Z,101760.52
2018-07-02T20:36:51.889Z,101765.49
2018-07-02T20:39:23.302Z,101768.22
2018-07-02T20:41:57.946Z,101770.93
2018-07-02T20:44:27.994Z,101773.58
2018-07-02T20:46:59.516Z,101780.71
2018-07-02T20:49:34.020Z,101781.17
2018-07-02T20:52:05.445Z,101781.73
2018-07-02T20:54:37.980Z,101784.09
2018-07-02T20:57:08.221Z,101787.83
2018-07-02T20:59:40.934Z,101787.47
2018-07-02T21:02:12.399Z,101789.31
2018-07-02T21:04:45.644Z,101790.67
2018-07-02T21:07:17.104Z,101787.45
2018-07-02T21:09:47.056Z,101786.85
2018-07-02T21:12:17.099Z,101794.89
2018-07-02T21:14:49.037Z,101798.70
2018-07-02T21:17:20.573Z,101801.30
2018-07-02T21:19:52.769Z,101807.19
2018-07-02T21:22:24.339Z,101808.67
2018-07-02T21:24:56.179Z,101803.05
2018-07-02T21:27:26.327Z,101804.44
2018-07-02T21:29:57.732Z,101808.84
2018-07-02T21:32:30.811Z,101816.63
2018-07-02T21:35:03.774Z,101814.88
2018-07-02T21:37:35.309Z,101819.36
2018-07-02T21:40:10.033Z,101821.06
2018-07-02T21:42:41.475Z,101823.87
2018-07-02T21:45:14.411Z,101824.62
2018-07-02T21:47:44.376Z,101820.56
2018-07-02T21:50:15.954Z,101826.47
2018-07-02T21:52:47.460Z,101819.50
2018-07-02T21:55:18.985Z,101807.80
2018-07-02T21:57:49.980Z,101823.97
2018-07-02T22:00:20.038Z,101824.88
2018-07-02T22:02:54.750Z,101828.64
2018-07-02T22:05:26.276Z,101834.98
2018-07-02T22:07:59.144Z,101829.73
2018-07-02T22:10:30.584Z,101824.04
2018-07-02T22:13:02.464Z,101836.50
2018-07-02T22:15:34.291Z,101844.23
2018-07-02T22:18:06.921Z,101837.94
2018-07-02T22:20:39.402Z,101834.95
2018-07-02T22:23:12.771Z,101840.87
2018-07-02T22:25:44.458Z,101854.02
2018-07-02T22:28:19.105Z,101848.23
2018-07-02T22:30:51.691Z,101848.41
2018-07-02T22:33:21.766Z,101850.63
2018-07-02T22:35:54.850Z,101855.31
2018-07-02T22:38:28.118Z,101856.83
2018-07-02T22:40:58.299Z,101856.89
2018-07-02T22:43:29.030Z,101855.95
2018-07-02T22:46:00.746Z,101852.37
2018-07-02T22:48:33.744Z,101856.18
2018-07-02T22:51:03.920Z,101862.44
2018-07-02T22:53:36.243Z,101861.79
2018-07-02T22:56:09.292Z,101863.45
2018-07-02T22:58:39.370Z,101868.58
2018-07-02T23:01:11.098Z,101870.23
2018-07-02T23:03:42.486Z,101869.55
2018-07-02T23:06:14.135Z,101879.25
2018-07-02T23:08:45.515Z,101877.12
2018-07-02T23:11:17.054Z,101884.45
2018-07-02T23:13:50.098Z,101877.59
2018-07-02T23:16:20.450Z,101873.89
2018-07-02T23:18:53.389Z,101872.91
2018-07-02T23:21:25.290Z,101881.68
2018-07-02T23:23:58.695Z,101879.37
2018-07-02T23:26:33.559Z,101887.63
2018-07-02T23:29:03.549Z,101886.55
2018-07-02T23:31:36.617Z,101883.59
2018-07-02T23:34:08.652Z,101886.65
2018-07-02T23:36:40.080Z,101882.59
2018-07-02T23:39:14.530Z,101883.75
2018-07-02T23:41:47.359Z,101882.14
2018-07-02T23:44:20.425Z,101884.47
2018-07-02T23:46:52.095Z,101881.72
2018-07-02T23:49:23.614Z,101881.02
2018-07-02T23:51:56.884Z,101883.16
2018-07-02T23:54:31.382Z,101883.34
2018-07-02T23:57:04.416Z,101890.11
2018-07-02T23:59:35.842Z,101883.61
